Hauptseite
METAR-TAF:

METAR-TAF

Flughäfen :

Victoria, Mahé, Seychellen

Flughafen Seychellen

Breite: 04-40S, Länge: 055-31E, Höhe: 3 m

Beobachtung

Neuester Wetterbericht von vor 11 Minuten, um 14:00 UTC
Wind 4 kt aus Süd
Temperatur 28°C
Luftfeuchtigkeit 70%
Luftdruck 1011 hPa
Sichtweite 10 km oder mehr
Leicht bewölkt in der Höhe von 1800 ft

METAR: FSIA 201400Z 19004KT 9999 FEW018 28/22 Q1011 NOSIG

Zeit: 18:11 (14:11 UTC)

Prognose

Neuester Wetterbericht von vor 3 Stunden und 3 Minuten, um 11:08 UTC
Gültige Prognose vom 20 um 12 UTC bis 21 um 12 UTC
Wind 10 kt aus Südost
Sichtweite 10 km oder mehr
Aufgelockert bewölkt in der Höhe von 1600 ft
Übergehend zu
vom 21 um 06 UTC bis 21 um 12 UTC
Wind 5 kt aus Südwest

TAF: FSIA 201108Z 2012/2112 13010KT 9999 SCT016 BECMG 2106/2112 22005KT

Wetterbeobachtungen und Prognosen von mehr als 4000 Flughäfen (METAR und TAF Bericht).

Die verfügbaren Stationen werden durch gelbe und rote Markierungen auf der Karte dargestellt.

Führen Sie die Maus auf sie, um den Namen der Station zu sehen.

Darauf klicken, um die Beobachtung von Wetterbeobachtungen und Prognosen zu sehen.

Um die Karte zu ändern : klicken Sie auf den grünen Tasten mit einem schwarzen Kreuz Zum Vergrößern, auf den grünen Button mit einem Gedankenstrich zu verkleinern, oder auf die grünen Pfeile für benachbarte Karten.


METAR-TAF: